Reklama

Seznam meteostanic a jejich METAR

Vyhledat místa podle abecedy:
A B C D E F G H I J K L M N O P Q R S T U V W X Y Z

Filtrovat:

ID stanice:
a/nebo
Název místa (fulltext):
 
Místo (ID)Naposledy načteno 
Brno - Tuřany (Brno/Tu) 03.06.2020 20:00 UTC Zobrazit data
Místo: Brno - Tuřany
Teplota: 16 °C (pocitová: 14 °C)
Vítr: 3 m/s z(e) 60°
Počasí: skoro zataženo
Dohlednost: 45 km
Zákl. oblačnosti: 1/8 2100 m;6/8 7500 m
Vlhkost: 63%
Červená - Opava (Cervena/uL) 03.06.2020 20:00 UTC Zobrazit data
Místo: Červená - Opava
Teplota: 12 °C (pocitová: 9.5 °C)
Vítr: 2 m/s z(e) 100°
Počasí: oblačno
Dohlednost: 30 km
Zákl. oblačnosti: 3/8 7200 m
Vlhkost: 54%
České Budějovice (C.Budej/po) 03.06.2020 20:00 UTC Zobrazit data
Místo: České Budějovice
Teplota: 13 °C (pocitová: 11.7 °C)
Vítr: 1 m/s z(e) 220°
Počasí: zataženo
Dohlednost: 35 km
Zákl. oblačnosti: 3/8 2400 m;5/8 6300 m
Vlhkost: 88%
Cheb (Cheb) 03.06.2020 20:00 UTC Zobrazit data
Místo: Cheb
Teplota: 14 °C (pocitová: 12.1 °C)
Vítr: 2 m/s z(e) 80°
Počasí: skorojasno
Dohlednost: 35 km
Zákl. oblačnosti: 1/8 3000 m
Vlhkost: 82%
Chotusice - Čáslav (Caslav) 03.06.2020 20:00 UTC Zobrazit data
Místo: Chotusice - Čáslav
Teplota: 18 °C (pocitová: 16.7 °C)
Vítr: 3 m/s z(e) 350°
Počasí: skoro zataženo
Dohlednost: 25 km
Zákl. oblačnosti: 2/8 2400 m;4/8 3000 m
Vlhkost: 56%
Churáňov (Churanov) 03.06.2020 20:00 UTC Zobrazit data
Místo: Churáňov
Teplota: 11 °C (pocitová: 8.2 °C)
Vítr: 2 m/s z(e) 60°
Počasí: skoro zataženo
Dohlednost: 50 km
Zákl. oblačnosti: 4/8 1500 m;3/8 2700 m
Vlhkost: 67%
Doksany - Litoměřice (Doksany) 03.06.2020 20:00 UTC Zobrazit data
Místo: Doksany - Litoměřice
Teplota: 15 °C (pocitová: 13.3 °C)
Vítr: 2 m/s z(e) 0°
Počasí: skoro zataženo
Dohlednost: 35 km
Zákl. oblačnosti: 5/8 2400 m;7/8 4500 m
Vlhkost: 77%
Dukovany (Dukovany) 03.06.2020 20:00 UTC Zobrazit data
Místo: Dukovany
Teplota: 15 °C (pocitová: 12.7 °C)
Vítr: 3 m/s z(e) 310°
Počasí: skoro zataženo
Dohlednost: 30 km
Zákl. oblačnosti: 2/8 1200 m;4/8 7200 m
Vlhkost: 68%
Holešov (Holesov) 03.06.2020 20:00 UTC Zobrazit data
Místo: Holešov
Teplota: 12 °C (pocitová: 10.4 °C)
Vítr: 1 m/s z(e) 100°
Počasí: skorojasno
Dohlednost: 40 km
Zákl. oblačnosti: 1/8 2100 m
Vlhkost: 72%
Kadaň - Tušimice (Tusimice) 03.06.2020 20:00 UTC Zobrazit data
Místo: Kadaň - Tušimice
Teplota: 14 °C (pocitová: 12.1 °C)
Vítr: 2 m/s z(e) 0°
Počasí: déšť
Dohlednost: 25 km
Zákl. oblačnosti: 1/8 1290 m;4/8 3000 m
Vlhkost: 94%
Karlovy Vary (K.Vary) 03.06.2020 20:00 UTC Zobrazit data
Místo: Karlovy Vary
Teplota: 12 °C (pocitová: 8 °C)
Vítr: 4 m/s z(e) 130°
Počasí: oblačno
Dohlednost: 50 km
Zákl. oblačnosti: 3/8 2400 m
Vlhkost: 88%
Kocelovice (Kocelovice) 03.06.2020 20:00 UTC Zobrazit data
Místo: Kocelovice
Teplota: 13 °C (pocitová: 11.7 °C)
Vítr: 1 m/s z(e) 320°
Počasí: skoro zataženo
Dohlednost: 30 km
Zákl. oblačnosti: 1/8 1500 m;3/8 2700 m
Vlhkost: 88%
Kopisty (Kopisty) 03.06.2020 18:00 UTC Zobrazit data
Místo: Kopisty
Teplota: 19 °C (pocitová: 19 °C)
Vítr: 1 m/s z(e) 90°
Počasí: skoro zataženo
Dohlednost: 35 km
Zákl. oblačnosti: 6/8 1800 m
Vlhkost: 52%
Kostelní Myslová (K.Myslova) 03.06.2020 20:00 UTC Zobrazit data
Místo: Kostelní Myslová
Teplota: 14 °C (pocitová: 12.9 °C)
Vítr: 1 m/s z(e) 0°
Počasí: skorojasno
Dohlednost: 35 km
Zákl. oblačnosti: 1/8 6000 m
Vlhkost: 63%
Křešín - Kramolín (Kramolin) 03.06.2020 20:00 UTC Zobrazit data
Místo: Křešín - Kramolín
Teplota: 15 °C (pocitová: 12.7 °C)
Vítr: 3 m/s z(e) 260°
Počasí: skoro zataženo
Dohlednost: 30 km
Zákl. oblačnosti: 6/8 2100 m
Vlhkost: 68%
Kuchařovice - Znojmo (Kucharovic) 03.06.2020 20:00 UTC Zobrazit data
Místo: Kuchařovice - Znojmo
Teplota: 16 °C (pocitová: 13.5 °C)
Vítr: 4 m/s z(e) 350°
Počasí: zataženo
Dohlednost: 35 km
Zákl. oblačnosti: 4/8 3300 m;7/8 4500 m
Vlhkost: 63%
Liberec (Liberec) 03.06.2020 20:00 UTC Zobrazit data
Místo: Liberec
Teplota: 13 °C (pocitová: 11.7 °C)
Vítr: 1 m/s z(e) 140°
Počasí: skoro zataženo
Dohlednost: 45 km
Zákl. oblačnosti: 5/8 6300 m
Vlhkost: 63%
Luká (Luka) 03.06.2020 20:00 UTC Zobrazit data
Místo: Luká
Teplota: 13 °C (pocitová: 9.4 °C)
Vítr: 4 m/s z(e) 110°
Počasí: skoro zataženo
Dohlednost: 65 km
Zákl. oblačnosti: 6/8 6600 m
Vlhkost: 59%
Lysá Hora (Lysa Hora) 03.06.2020 20:00 UTC Zobrazit data
Místo: Lysá Hora
Teplota: 7 °C (pocitová: 4.3 °C)
Vítr: 1 m/s z(e) 90°
Počasí: skorojasno
Dohlednost: 70 km
Zákl. oblačnosti: 1/8 1290 m
Vlhkost: 61%
Milešovka (Milesovka) 03.06.2020 20:00 UTC Zobrazit data
Místo: Milešovka
Teplota: 13 °C (pocitová: 7.7 °C)
Vítr: 10 m/s z(e) 250°
Počasí: skoro zataženo
Dohlednost: 50 km
Zákl. oblačnosti: 3/8 690 m;7/8 1800 m
Vlhkost: 72%
Mošnov (Ostrava/Mo) 03.06.2020 20:00 UTC Zobrazit data
Místo: Mošnov
Teplota: 14 °C (pocitová: 12.9 °C)
Vítr: 1 m/s z(e) 0°
Počasí: oblačno
Dohlednost: 30 km
Zákl. oblačnosti: 4/8 2100 m
Vlhkost: 67%
Náměšť nad Oslavou (Namest n/O) 03.06.2020 20:00 UTC Zobrazit data
Místo: Náměšť nad Oslavou
Teplota: 15 °C (pocitová: 13.3 °C)
Vítr: 2 m/s z(e) 240°
Počasí: oblačno
Dohlednost: 30 km
Zákl. oblačnosti: 2/8 1800 m;4/8 3000 m
Vlhkost: 68%
Pardubice (Pardubice) 03.06.2020 20:00 UTC Zobrazit data
Místo: Pardubice
Teplota: 16 °C (pocitová: 14 °C)
Vítr: 3 m/s z(e) 100°
Počasí: skoro zataženo
Dohlednost: 20 km
Zákl. oblačnosti: 7/8 6300 m
Vlhkost: 63%
Pec pod Sněžkou (Pec p.Snez) 03.06.2020 20:00 UTC Zobrazit data
Místo: Pec pod Sněžkou
Teplota: 8 °C (pocitová: 5.5 °C)
Vítr: 1 m/s z(e) 0°
Počasí: skoro zataženo
Dohlednost: 30 km
Zákl. oblačnosti: 7/8 6300 m
Vlhkost: 76%
Plzeň město - Mikulka (Plzen/Miku) 03.06.2020 20:00 UTC Zobrazit data
Místo: Plzeň město - Mikulka
Teplota: 13 °C (pocitová: 10 °C)
Vítr: 3 m/s z(e) 110°
Počasí: skoro zataženo
Dohlednost: 25 km
Zákl. oblačnosti: 2/8 1470 m;5/8 2400 m
Vlhkost: 94%
Polom (Polom) 03.06.2020 20:00 UTC Zobrazit data
Místo: Polom
Teplota: 13 °C (pocitová: 10.8 °C)
Vítr: 2 m/s z(e) 100°
Počasí: oblačno
Dohlednost: 40 km
Zákl. oblačnosti: 3/8 6900 m
Vlhkost: 51%
Praha - Karlov (Praha/Kar) 03.06.2020 20:00 UTC Zobrazit data
Místo: Praha - Karlov
Teplota: 16 °C (pocitová: 13.5 °C)
Vítr: 4 m/s z(e) 190°
Počasí: skoro zataženo
Dohlednost: 35 km
Zákl. oblačnosti: 1/8 660 m;7/8 3000 m
Vlhkost: 72%
Praha - Kbely (Praha/Kbe) 03.06.2020 20:00 UTC Zobrazit data
Místo: Praha - Kbely
Teplota: 15 °C (pocitová: 12.7 °C)
Vítr: 3 m/s z(e) 170°
Počasí: skoro zataženo
Dohlednost: 20 km
Zákl. oblačnosti: 5/8 2700 m;7/8 6000 m
Vlhkost: 82%
Praha - Libuš (Praha/Lib) 03.06.2020 20:00 UTC Zobrazit data
Místo: Praha - Libuš
Teplota: 14 °C (pocitová: 11.3 °C)
Vítr: 3 m/s z(e) 220°
Počasí: skoro zataženo
Dohlednost: 30 km
Zákl. oblačnosti: 4/8 2700 m;7/8 3600 m
Vlhkost: 82%
Praha - Ruzyně (Praha/Ru) 03.06.2020 20:00 UTC Zobrazit data
Místo: Praha - Ruzyně
Teplota: 15 °C (pocitová: 11.2 °C)
Vítr: 7 m/s z(e) 200°
Počasí: skoro zataženo
Dohlednost: 40 km
Zákl. oblačnosti: 2/8 2400 m;5/8 4200 m
Vlhkost: 68%
Přibyslav (Pribyslav) 03.06.2020 20:00 UTC Zobrazit data
Místo: Přibyslav
Teplota: 14 °C (pocitová: 12.1 °C)
Vítr: 2 m/s z(e) 0°
Počasí: skoro zataženo
Dohlednost: 18 km
Zákl. oblačnosti: 3/8 2100 m;6/8 6300 m
Vlhkost: 77%
Přimda (Primda) 03.06.2020 20:00 UTC Zobrazit data
Místo: Přimda
Teplota: 12 °C (pocitová: 8 °C)
Vítr: 4 m/s z(e) 100°
Počasí: skorojasno
Dohlednost: 45 km
Zákl. oblačnosti: 1/8 1500 m
Vlhkost: 82%
Šerák (Serak) 03.06.2020 20:00 UTC Zobrazit data
Místo: Šerák
Teplota: 6 °C (pocitová: 1.8 °C)
Vítr: 2 m/s z(e) 110°
Počasí: skoro zataženo
Dohlednost: 75 km
Zákl. oblačnosti: 7/8 7200 m
Vlhkost: 76%
Svratouch (Svratouch) 03.06.2020 20:00 UTC Zobrazit data
Místo: Svratouch
Teplota: 14 °C (pocitová: 12.1 °C)
Vítr: 2 m/s z(e) 150°
Počasí: skoro zataženo
Dohlednost: 70 km
Zákl. oblačnosti: 1/8 1200 m;6/8 6000 m
Vlhkost: 63%
Temelín (Temelin) 03.06.2020 20:00 UTC Zobrazit data
Místo: Temelín
Teplota: 14 °C (pocitová: 10.4 °C)
Vítr: 5 m/s z(e) 10°
Počasí: skoro zataženo
Dohlednost: 35 km
Zákl. oblačnosti: 7/8 3900 m
Vlhkost: 72%
Ústí nad Labem - Kočkov (Usti n/L) 03.06.2020 20:00 UTC Zobrazit data
Místo: Ústí nad Labem - Kočkov
Teplota: 16 °C (pocitová: 13.5 °C)
Vítr: 4 m/s z(e) 270°
Počasí: skoro zataženo
Dohlednost: 60 km
Zákl. oblačnosti: 5/8 1800 m;3/8 3600 m
Vlhkost: 59%
Ústí nad Orlicí (Usti n/O) 03.06.2020 20:00 UTC Zobrazit data
Místo: Ústí nad Orlicí
Teplota: 14 °C (pocitová: 12.9 °C)
Vítr: 1 m/s z(e) 0°
Počasí: skoro zataženo
Dohlednost: 70 km
Zákl. oblačnosti: 1/8 4800 m;3/8 6900 m
Vlhkost: 55%
Aalborg (EKYT) 03.06.2020 19:50 UTC Zobrazit METAR
EKYT 031950Z AUTO 12005KT 9999 FEW090/// BKN170/// 16/12 Q1004
Aarhus (EKAH) 26.03.2020 11:50 UTC Zobrazit METAR
EKAH 261150Z 14009KT 100V190 CAVOK 10/M06 Q1031
Abu Dhabi (OMAA) 03.06.2020 20:00 UTC Zobrazit METAR
OMAA 032000Z 21005KT CAVOK 32/22 Q1001 NOSIG
Abuja (DNAA) 03.06.2020 11:00 UTC Zobrazit METAR
DNAA 031100Z 31006KT 9999 BKN012 30/24 Q1015 NOSIG
Accra (DGAA) 03.06.2020 20:00 UTC Zobrazit METAR
DGAA 032000Z 22010KT CAVOK 28/25 Q1012 NOSIG
Addis Abeba (HAAB) 03.06.2020 19:00 UTC Zobrazit METAR
HAAB 031900Z 03002KT 9999 SCT025 15/11 Q1026
Agana (PGUM) 03.06.2020 19:54 UTC Zobrazit METAR
PGUM 031954Z 07007KT 10SM CLR 27/23 A2990 RMK AO2 SLP115 T02720233
Ahe Island (NTHE) Zatím nenačteno  
Akureyri (BIAR) 03.06.2020 20:00 UTC Zobrazit METAR
BIAR 032000Z 34014KT CAVOK 06/03 Q1018 RMK WIND VADLAHEIDI 06407KT
Almaty (UAAA) Zatím nenačteno  
Amman (OJAM) 03.06.2020 20:00 UTC Zobrazit METAR
OJAM 032000Z 25010KT CAVOK 18/04 Q1015 NOSIG
Amsterdam (EHAM) 03.06.2020 19:55 UTC Zobrazit METAR
EHAM 031955Z 36010KT 310V040 9999 FEW018 16/11 Q1002 NOSIG
Antananarivo (FMMI) 03.06.2020 20:00 UTC Zobrazit METAR
FMMI 032000Z 11006KT 9999 BKN017 12/10 Q1027 NOSIG
1 2 3 ... 9 Další
Reklama

Lunární kalendář

  • 05.06.Fáze měsíce uplnek
  • 13.06.Fáze měsíce posl_ctvrt
  • 21.06.Fáze měsíce nov
  • 28.06.Fáze měsíce prv_ctvrt



Reklama
Meteodomečky

Počasí na Váš email

Emaily jsou bez reklamy a bez spamu



Odhlásit newsletter

Reklama


Další české internetové stránky (nejen) o počasí najdete v katalogu TOPlist - weby o počasí nebo vyhledejte na internetu, co jste tu na 🌞 Slunečnu ⛅ zatím nenašli:

Reklama